MSC Jordan — HPMK — position and weather

sailwx.info

Track history (hours):
 
Tides and Currents Weather Stations Pressure Air Temp Water Temp Dewpoint Dewpoint Depression Visibility Wind Speed Wind Dir Waves Ship Positions

MSC Jordan

Last reported at 2014-Nov-09 17:33 UTC. Time now 2014-Nov-28 03:03 UTC.
Position N 49°36' W 000°27'.
Warning: this ship's position is 18 days out of date.

Length 237 m; draft 11.5 m.

Type: Ship. MMSI: 355194000.

Date/timePositionNaut miles runAvg speedWind from/ knotsBaromVisibWave heightAir tempDewpointWater temp
2014-Nov-09 17:33N 49°36' W 000°27'1515.4
2014-Nov-09 16:33N 49°31' W 000°04'9 9.0
2014-Nov-09 15:32N 49°28' E 000°09'0 0.0
2014-Nov-09 14:32N 49°28' E 000°09'0 0.0
2014-Nov-09 13:32N 49°28' E 000°09'0 0.0
2014-Nov-09 12:32N 49°28' E 000°09'0 0.0
2014-Nov-09 11:33N 49°28' E 000°09'0 0.0
2014-Nov-09 10:33N 49°28' E 000°09'0 0.0
2014-Nov-09 09:30N 49°28' E 000°09'0 0.0
2014-Nov-09 08:33N 49°28' E 000°09'0 0.0
2014-Nov-09 07:33N 49°28' E 000°09'0 0.0
2014-Nov-09 06:31N 49°28' E 000°09'0 0.0
2014-Nov-09 05:28N 49°28' E 000°09'0 0.0
2014-Nov-09 04:28N 49°28' E 000°09'4 4.6
2014-Nov-09 03:33N 49°30' E 000°03'1111.3
2014-Nov-09 02:33N 49°36' W 000°12'6315.6
2014-Nov-08 22:31N 50°33' E 000°26'1616.2
2014-Nov-08 21:33N 50°41' E 000°48'2318.0
2014-Nov-08 20:18N 50°54' E 001°17'1520.6
2014-Nov-08 19:34N 51°05' E 001°34'1919.4
2014-Nov-08 18:34N 51°22' E 001°50'1817.6
2014-Nov-08 17:33N 51°39' E 001°46'1313.4
2014-Nov-08 16:33N 51°52' E 001°38'8 8.0
2014-Nov-08 15:34N 51°56' E 001°27'6 5.6
2014-Nov-08 14:32N 51°57' E 001°18'0 0.0
2014-Nov-08 13:32N 51°57' E 001°18'0 0.0
2014-Nov-08 12:32N 51°58' E 001°18'0 0.0
2014-Nov-08 11:32N 51°57' E 001°18'0 0.0
2014-Nov-08 10:32N 51°58' E 001°18'0 0.0
2014-Nov-08 09:32N 51°58' E 001°18'0 0.0
2014-Nov-08 08:33N 51°57' E 001°18'0 0.0
2014-Nov-08 07:31N 51°58' E 001°18'0 0.0
2014-Nov-08 06:31N 51°57' E 001°18'0 0.0
2014-Nov-08 05:33N 51°57' E 001°18'0 0.0
2014-Nov-08 04:33N 51°58' E 001°18'0 0.0
2014-Nov-08 03:31N 51°58' E 001°18'0 0.0
2014-Nov-08 02:31N 51°57' E 001°18'0 0.0
2014-Nov-08 01:31N 51°57' E 001°18'0 0.0
2014-Nov-08 00:31N 51°58' E 001°18'0 0.0
2014-Nov-07 23:31N 51°58' E 001°18'0 0.0
2014-Nov-07 22:31N 51°57' E 001°18'2 1.8
2014-Nov-07 21:33N 51°56' E 001°19'10 9.6
2014-Nov-07 20:33N 51°53' E 001°34'4 3.9
2014-Nov-07 19:34N 51°54' E 001°40'0 0.4
2014-Nov-07 18:33N 51°54' E 001°41'0 0.0
2014-Nov-07 17:33N 51°54' E 001°41'0 0.0
2014-Nov-07 16:33N 51°54' E 001°41'0 0.0
2014-Nov-07 15:33N 51°54' E 001°40'0 0.1
2014-Nov-07 14:33N 51°54' E 001°40'0 0.0
2014-Nov-07 13:33N 51°54' E 001°40'0 0.0
2014-Nov-07 12:33N 51°54' E 001°40'0 0.1
2014-Nov-07 11:33N 51°54' E 001°40'0 0.1
2014-Nov-07 10:33N 51°54' E 001°40'0 0.1
2014-Nov-07 09:33N 51°54' E 001°40'0 0.1
2014-Nov-07 08:33N 51°54' E 001°40'0 0.1
2014-Nov-07 07:33N 51°54' E 001°40'0 0.0
2014-Nov-07 06:33N 51°54' E 001°40'0 0.2
2014-Nov-07 05:33N 51°53' E 001°40'1010.0
2014-Nov-07 04:33N 51°45' E 001°49'1717.3
2014-Nov-07 03:34N 51°29' E 001°57'1615.9
2014-Nov-07 02:33N 51°21' E 002°19'1614.6
2014-Nov-07 01:27N 51°22' E 002°45'1614.6
2014-Nov-07 00:23N 51°24' E 003°10'1315.4
2014-Nov-06 23:33N 51°25' E 003°30'10 9.7
2014-Nov-06 22:33N 51°22' E 003°45'1111.0
2014-Nov-06 21:33N 51°25' E 004°02'9 8.7
2014-Nov-06 20:34N 51°21' E 004°15'2 1.8
2014-Nov-06 19:34N 51°21' E 004°17'0 0.0
2014-Nov-06 18:34N 51°21' E 004°17'1 0.5
2014-Nov-06 17:33N 51°20' E 004°18'2 1.6
2014-Nov-06 16:28N 51°20' E 004°20'0 0.0
2014-Nov-06 15:31N 51°20' E 004°20'0 0.0
2014-Nov-06 14:31N 51°20' E 004°20'0 0.0
2014-Nov-06 13:31N 51°20' E 004°20'0 0.0
2014-Nov-06 12:31N 51°20' E 004°20'0 0.0
2014-Nov-06 11:32N 51°20' E 004°20'0 0.0
2014-Nov-06 10:32N 51°20' E 004°20'0 0.0
2014-Nov-06 09:32N 51°20' E 004°20'0 0.0
2014-Nov-06 08:32N 51°20' E 004°20'0 0.0
2014-Nov-06 07:33N 51°20' E 004°20'0 0.0
2014-Nov-06 06:22N 51°20' E 004°20'0 0.0
2014-Nov-06 05:30N 51°20' E 004°20'0 0.0
2014-Nov-06 04:31N 51°20' E 004°20'0 0.0
2014-Nov-06 03:33N 51°20' E 004°20'0 0.0
2014-Nov-06 02:29N 51°20' E 004°20'0 0.0
2014-Nov-06 01:26N 51°20' E 004°20'0 0.0
2014-Nov-06 00:33N 51°20' E 004°20'0 0.0
2014-Nov-05 23:20N 51°20' E 004°20'0 0.0
2014-Nov-05 22:33N 51°20' E 004°20'0 0.0
2014-Nov-05 21:31N 51°20' E 004°20'0 0.0
2014-Nov-05 20:33N 51°20' E 004°20'0 0.0
2014-Nov-05 19:27N 51°20' E 004°20'0 0.0
2014-Nov-05 18:30N 51°20' E 004°20'0 0.0
2014-Nov-05 17:33N 51°20' E 004°20'0 0.0
2014-Nov-05 16:28N 51°20' E 004°20'0 0.0
2014-Nov-05 15:28N 51°20' E 004°20'0 0.0
2014-Nov-05 14:10N 51°20' E 004°20'0 0.0
2014-Nov-05 13:22N 51°20' E 004°20'0 0.0
2014-Nov-05 12:31N 51°20' E 004°20'0 0.0
2014-Nov-05 11:28N 51°20' E 004°20'0 0.0
2014-Nov-05 10:22N 51°20' E 004°20'0 0.0
2014-Nov-05 09:19N 51°20' E 004°20'0 0.0
2014-Nov-05 08:23N 51°20' E 004°20'0 0.0
2014-Nov-05 07:33N 51°20' E 004°20'0 0.0
2014-Nov-05 06:33N 51°20' E 004°20'0 0.0
2014-Nov-05 05:28N 51°20' E 004°20'0 0.0
2014-Nov-05 04:32N 51°20' E 004°20'0 0.0
2014-Nov-05 03:32N 51°20' E 004°20'0 0.0
2014-Nov-05 02:29N 51°20' E 004°20'0 0.0
2014-Nov-05 01:23N 51°20' E 004°20'0 0.0
2014-Nov-05 00:17N 51°20' E 004°20'0 0.0
2014-Nov-04 23:28N 51°20' E 004°20'0 0.0
2014-Nov-04 22:23N 51°20' E 004°20'0 0.0
2014-Nov-04 21:32N 51°20' E 004°20'0 0.0
2014-Nov-04 20:33N 51°20' E 004°20'0 0.0
2014-Nov-04 19:32N 51°20' E 004°20'0 0.0
2014-Nov-04 18:26N 51°20' E 004°20'0 0.0
2014-Nov-04 17:32N 51°20' E 004°20'0 0.0
2014-Nov-04 16:23N 51°20' E 004°20'0 0.0
2014-Nov-04 15:32N 51°20' E 004°20'0 0.0
2014-Nov-04 14:32N 51°20' E 004°20'0 0.0
2014-Nov-04 13:32N 51°20' E 004°20'0 0.0
2014-Nov-04 12:29N 51°20' E 004°20'0 0.0
2014-Nov-04 11:32N 51°20' E 004°20'0 0.0
2014-Nov-04 10:32N 51°20' E 004°20'0 0.0
2014-Nov-04 09:22N 51°20' E 004°20'0 0.0
2014-Nov-04 08:30N 51°20' E 004°20'0 0.0
2014-Nov-04 07:32N 51°20' E 004°20'0 0.0
2014-Nov-04 06:32N 51°20' E 004°20'0 0.0
2014-Nov-04 05:29N 51°20' E 004°20'0 0.0
2014-Nov-04 04:32N 51°20' E 004°20'2 1.6
2014-Nov-04 03:33N 51°20' E 004°18'1 0.9
2014-Nov-04 02:33N 51°21' E 004°17'2 2.1
2014-Nov-04 01:33N 51°21' E 004°14'1010.2
2014-Nov-04 00:34N 51°26' E 003°60'1110.8
2014-Nov-03 23:33N 51°23' E 003°43'8 8.3
2014-Nov-03 22:33N 51°27' E 003°31'1312.7
2014-Nov-03 21:33N 51°38' E 003°21'10 9.7
2014-Nov-03 20:32N 51°47' E 003°15'3 3.3
2014-Nov-03 19:33N 51°49' E 003°20'2 2.3
2014-Nov-03 18:50N 51°49' E 003°22'0 0.1
2014-Nov-03 17:47N 51°49' E 003°22'0 0.1
2014-Nov-03 17:20N 51°49' E 003°22'0 0.0
2014-Nov-03 16:26N 51°49' E 003°23'0 0.0
2014-Nov-03 14:32N 51°49' E 003°23'0 0.1
2014-Nov-03 13:32N 51°49' E 003°22'0 0.0
2014-Nov-03 12:32N 51°49' E 003°22'0 0.0
2014-Nov-03 09:26N 51°49' E 003°22'0 0.0
2014-Nov-03 06:32N 51°49' E 003°22'0 0.0
2014-Nov-03 05:20N 51°49' E 003°22'0 0.0
2014-Nov-03 04:29N 51°49' E 003°22'0 0.0
2014-Nov-03 03:32N 51°49' E 003°22'0 0.0
2014-Nov-03 02:32N 51°49' E 003°23'0 0.0
2014-Nov-03 01:32N 51°49' E 003°22'0 0.0
2014-Nov-03 00:32N 51°49' E 003°22'0 0.0
2014-Nov-02 23:32N 51°49' E 003°22'0 0.0
2014-Nov-02 22:32N 51°49' E 003°23'0 0.0
2014-Nov-02 21:32N 51°49' E 003°23'0 0.0
2014-Nov-02 20:29N 51°49' E 003°22'0 0.0
2014-Nov-02 19:05N 51°49' E 003°23'0 0.0
2014-Nov-02 18:20N 51°49' E 003°22'0 0.0
2014-Nov-02 15:32N 51°49' E 003°22'0 0.0
2014-Nov-02 14:32N 51°49' E 003°22'0 0.1
2014-Nov-02 13:32N 51°49' E 003°22'1412.7
2014-Nov-02 12:27N 52°03' E 003°20'8414.2
2014-Nov-02 06:33N 53°16' E 004°28'1515.4
2014-Nov-02 05:33N 53°31' E 004°36'1615.1
2014-Nov-02 04:29N 53°46' E 004°45'1414.9
2014-Nov-02 03:34N 53°59' E 004°53'1514.7
2014-Nov-02 02:33N 54°13' E 005°03'1514.8
2014-Nov-02 01:32N 54°26' E 005°14'9315.5
2014-Nov-01 19:32N 55°45' E 006°40'1615.6
2014-Nov-01 18:31N 55°58' E 006°55'12615.0
2014-Nov-01 10:09N 57°38' E 009°15'915.2
2014-Nov-01 09:33N 57°40' E 009°32'1515.5
2014-Nov-01 08:34N 57°44' E 009°60'1615.5
2014-Nov-01 07:33N 57°47' E 010°28'1514.6
2014-Nov-01 06:33N 57°45' E 010°55'1716.8
2014-Nov-01 05:34N 57°33' E 011°18'1716.6
2014-Nov-01 04:34N 57°19' E 011°34'1717.2
2014-Nov-01 03:33N 57°03' E 011°44'1716.8
2014-Nov-01 02:34N 56°47' E 011°54'1616.1
2014-Nov-01 01:32N 56°32' E 011°40'5317.2
2014-Oct-31 22:26N 55°47' E 010°49'1517.4
2014-Oct-31 21:34N 55°32' E 010°52'1817.1
2014-Oct-31 20:32N 55°16' E 011°05'1616.6
2014-Oct-31 19:33N 54°60' E 011°02'1716.8
2014-Oct-31 18:32N 54°44' E 010°53'1716.9
2014-Oct-31 17:32N 54°34' E 011°17'1616.7
2014-Oct-31 16:33N 54°27' E 011°43'1716.1
2014-Oct-31 15:31N 54°27' E 012°11'7715.6
2014-Oct-31 10:34N 55°06' E 014°08'1615.9
2014-Oct-31 09:33N 55°18' E 014°25'1615.8
2014-Oct-31 08:33N 55°29' E 014°46'1716.3
2014-Oct-31 07:33N 55°37' E 015°12'  
Track history (hours):
 
Tides and Currents Weather Stations Pressure Air Temp Water Temp Dewpoint Dewpoint Depression Visibility Wind Speed Wind Dir Waves Ship Positions

MSC Jordan

Last reported at 2014-Nov-09 17:33 UTC. Time now 2014-Nov-28 03:03 UTC.
Position N 49°36' W 000°27'.
Warning: this ship's position is 18 days out of date.

Length 237 m; draft 11.5 m.

Type: Ship. MMSI: 355194000.

Date/timePositionNaut miles runAvg speedWind from/ knotsBaromVisibWave heightAir tempDewpointWater temp
2014-Nov-09 17:33N 49°36' W 000°27'1515.4
2014-Nov-09 16:33N 49°31' W 000°04'9 9.0
2014-Nov-09 15:32N 49°28' E 000°09'0 0.0
2014-Nov-09 14:32N 49°28' E 000°09'0 0.0
2014-Nov-09 13:32N 49°28' E 000°09'0 0.0
2014-Nov-09 12:32N 49°28' E 000°09'0 0.0
2014-Nov-09 11:33N 49°28' E 000°09'0 0.0
2014-Nov-09 10:33N 49°28' E 000°09'0 0.0
2014-Nov-09 09:30N 49°28' E 000°09'0 0.0
2014-Nov-09 08:33N 49°28' E 000°09'0 0.0
2014-Nov-09 07:33N 49°28' E 000°09'0 0.0
2014-Nov-09 06:31N 49°28' E 000°09'0 0.0
2014-Nov-09 05:28N 49°28' E 000°09'0 0.0
2014-Nov-09 04:28N 49°28' E 000°09'4 4.6
2014-Nov-09 03:33N 49°30' E 000°03'1111.3
2014-Nov-09 02:33N 49°36' W 000°12'6315.6
2014-Nov-08 22:31N 50°33' E 000°26'1616.2
2014-Nov-08 21:33N 50°41' E 000°48'2318.0
2014-Nov-08 20:18N 50°54' E 001°17'1520.6
2014-Nov-08 19:34N 51°05' E 001°34'1919.4
2014-Nov-08 18:34N 51°22' E 001°50'1817.6
2014-Nov-08 17:33N 51°39' E 001°46'1313.4
2014-Nov-08 16:33N 51°52' E 001°38'8 8.0
2014-Nov-08 15:34N 51°56' E 001°27'6 5.6
2014-Nov-08 14:32N 51°57' E 001°18'0 0.0
2014-Nov-08 13:32N 51°57' E 001°18'0 0.0
2014-Nov-08 12:32N 51°58' E 001°18'0 0.0
2014-Nov-08 11:32N 51°57' E 001°18'0 0.0
2014-Nov-08 10:32N 51°58' E 001°18'0 0.0
2014-Nov-08 09:32N 51°58' E 001°18'0 0.0
2014-Nov-08 08:33N 51°57' E 001°18'0 0.0
2014-Nov-08 07:31N 51°58' E 001°18'0 0.0
2014-Nov-08 06:31N 51°57' E 001°18'0 0.0
2014-Nov-08 05:33N 51°57' E 001°18'0 0.0
2014-Nov-08 04:33N 51°58' E 001°18'0 0.0
2014-Nov-08 03:31N 51°58' E 001°18'0 0.0
2014-Nov-08 02:31N 51°57' E 001°18'0 0.0
2014-Nov-08 01:31N 51°57' E 001°18'0 0.0
2014-Nov-08 00:31N 51°58' E 001°18'0 0.0
2014-Nov-07 23:31N 51°58' E 001°18'0 0.0
2014-Nov-07 22:31N 51°57' E 001°18'2 1.8
2014-Nov-07 21:33N 51°56' E 001°19'10 9.6
2014-Nov-07 20:33N 51°53' E 001°34'4 3.9
2014-Nov-07 19:34N 51°54' E 001°40'0 0.4
2014-Nov-07 18:33N 51°54' E 001°41'0 0.0
2014-Nov-07 17:33N 51°54' E 001°41'0 0.0
2014-Nov-07 16:33N 51°54' E 001°41'0 0.0
2014-Nov-07 15:33N 51°54' E 001°40'0 0.1
2014-Nov-07 14:33N 51°54' E 001°40'0 0.0
2014-Nov-07 13:33N 51°54' E 001°40'0 0.0
2014-Nov-07 12:33N 51°54' E 001°40'0 0.1
2014-Nov-07 11:33N 51°54' E 001°40'0 0.1
2014-Nov-07 10:33N 51°54' E 001°40'0 0.1
2014-Nov-07 09:33N 51°54' E 001°40'0 0.1
2014-Nov-07 08:33N 51°54' E 001°40'0 0.1
2014-Nov-07 07:33N 51°54' E 001°40'0 0.0
2014-Nov-07 06:33N 51°54' E 001°40'0 0.2
2014-Nov-07 05:33N 51°53' E 001°40'1010.0
2014-Nov-07 04:33N 51°45' E 001°49'1717.3
2014-Nov-07 03:34N 51°29' E 001°57'1615.9
2014-Nov-07 02:33N 51°21' E 002°19'1614.6
2014-Nov-07 01:27N 51°22' E 002°45'1614.6
2014-Nov-07 00:23N 51°24' E 003°10'1315.4
2014-Nov-06 23:33N 51°25' E 003°30'10 9.7
2014-Nov-06 22:33N 51°22' E 003°45'1111.0
2014-Nov-06 21:33N 51°25' E 004°02'9 8.7
2014-Nov-06 20:34N 51°21' E 004°15'2 1.8
2014-Nov-06 19:34N 51°21' E 004°17'0 0.0
2014-Nov-06 18:34N 51°21' E 004°17'1 0.5
2014-Nov-06 17:33N 51°20' E 004°18'2 1.6
2014-Nov-06 16:28N 51°20' E 004°20'0 0.0
2014-Nov-06 15:31N 51°20' E 004°20'0 0.0
2014-Nov-06 14:31N 51°20' E 004°20'0 0.0
2014-Nov-06 13:31N 51°20' E 004°20'0 0.0
2014-Nov-06 12:31N 51°20' E 004°20'0 0.0
2014-Nov-06 11:32N 51°20' E 004°20'0 0.0
2014-Nov-06 10:32N 51°20' E 004°20'0 0.0
2014-Nov-06 09:32N 51°20' E 004°20'0 0.0
2014-Nov-06 08:32N 51°20' E 004°20'0 0.0
2014-Nov-06 07:33N 51°20' E 004°20'0 0.0
2014-Nov-06 06:22N 51°20' E 004°20'0 0.0
2014-Nov-06 05:30N 51°20' E 004°20'0 0.0
2014-Nov-06 04:31N 51°20' E 004°20'0 0.0
2014-Nov-06 03:33N 51°20' E 004°20'0 0.0
2014-Nov-06 02:29N 51°20' E 004°20'0 0.0
2014-Nov-06 01:26N 51°20' E 004°20'0 0.0
2014-Nov-06 00:33N 51°20' E 004°20'0 0.0
2014-Nov-05 23:20N 51°20' E 004°20'0 0.0
2014-Nov-05 22:33N 51°20' E 004°20'0 0.0
2014-Nov-05 21:31N 51°20' E 004°20'0 0.0
2014-Nov-05 20:33N 51°20' E 004°20'0 0.0
2014-Nov-05 19:27N 51°20' E 004°20'0 0.0
2014-Nov-05 18:30N 51°20' E 004°20'0 0.0
2014-Nov-05 17:33N 51°20' E 004°20'0 0.0
2014-Nov-05 16:28N 51°20' E 004°20'0 0.0
2014-Nov-05 15:28N 51°20' E 004°20'0 0.0
2014-Nov-05 14:10N 51°20' E 004°20'0 0.0
2014-Nov-05 13:22N 51°20' E 004°20'0 0.0
2014-Nov-05 12:31N 51°20' E 004°20'0 0.0
2014-Nov-05 11:28N 51°20' E 004°20'0 0.0
2014-Nov-05 10:22N 51°20' E 004°20'0 0.0
2014-Nov-05 09:19N 51°20' E 004°20'0 0.0
2014-Nov-05 08:23N 51°20' E 004°20'0 0.0
2014-Nov-05 07:33N 51°20' E 004°20'0 0.0
2014-Nov-05 06:33N 51°20' E 004°20'0 0.0
2014-Nov-05 05:28N 51°20' E 004°20'0 0.0
2014-Nov-05 04:32N 51°20' E 004°20'0 0.0
2014-Nov-05 03:32N 51°20' E 004°20'0 0.0
2014-Nov-05 02:29N 51°20' E 004°20'0 0.0
2014-Nov-05 01:23N 51°20' E 004°20'0 0.0
2014-Nov-05 00:17N 51°20' E 004°20'0 0.0
2014-Nov-04 23:28N 51°20' E 004°20'0 0.0
2014-Nov-04 22:23N 51°20' E 004°20'0 0.0
2014-Nov-04 21:32N 51°20' E 004°20'0 0.0
2014-Nov-04 20:33N 51°20' E 004°20'0 0.0
2014-Nov-04 19:32N 51°20' E 004°20'0 0.0
2014-Nov-04 18:26N 51°20' E 004°20'0 0.0
2014-Nov-04 17:32N 51°20' E 004°20'0 0.0
2014-Nov-04 16:23N 51°20' E 004°20'0 0.0
2014-Nov-04 15:32N 51°20' E 004°20'0 0.0
2014-Nov-04 14:32N 51°20' E 004°20'0 0.0
2014-Nov-04 13:32N 51°20' E 004°20'0 0.0
2014-Nov-04 12:29N 51°20' E 004°20'0 0.0
2014-Nov-04 11:32N 51°20' E 004°20'0 0.0
2014-Nov-04 10:32N 51°20' E 004°20'0 0.0
2014-Nov-04 09:22N 51°20' E 004°20'0 0.0
2014-Nov-04 08:30N 51°20' E 004°20'0 0.0
2014-Nov-04 07:32N 51°20' E 004°20'0 0.0
2014-Nov-04 06:32N 51°20' E 004°20'0 0.0
2014-Nov-04 05:29N 51°20' E 004°20'0 0.0
2014-Nov-04 04:32N 51°20' E 004°20'2 1.6
2014-Nov-04 03:33N 51°20' E 004°18'1 0.9
2014-Nov-04 02:33N 51°21' E 004°17'2 2.1
2014-Nov-04 01:33N 51°21' E 004°14'1010.2
2014-Nov-04 00:34N 51°26' E 003°60'1110.8
2014-Nov-03 23:33N 51°23' E 003°43'8 8.3
2014-Nov-03 22:33N 51°27' E 003°31'1312.7
2014-Nov-03 21:33N 51°38' E 003°21'10 9.7
2014-Nov-03 20:32N 51°47' E 003°15'3 3.3
2014-Nov-03 19:33N 51°49' E 003°20'2 2.3
2014-Nov-03 18:50N 51°49' E 003°22'0 0.1
2014-Nov-03 17:47N 51°49' E 003°22'0 0.1
2014-Nov-03 17:20N 51°49' E 003°22'0 0.0
2014-Nov-03 16:26N 51°49' E 003°23'0 0.0
2014-Nov-03 14:32N 51°49' E 003°23'0 0.1
2014-Nov-03 13:32N 51°49' E 003°22'0 0.0
2014-Nov-03 12:32N 51°49' E 003°22'0 0.0
2014-Nov-03 09:26N 51°49' E 003°22'0 0.0
2014-Nov-03 06:32N 51°49' E 003°22'0 0.0
2014-Nov-03 05:20N 51°49' E 003°22'0 0.0
2014-Nov-03 04:29N 51°49' E 003°22'0 0.0
2014-Nov-03 03:32N 51°49' E 003°22'0 0.0
2014-Nov-03 02:32N 51°49' E 003°23'0 0.0
2014-Nov-03 01:32N 51°49' E 003°22'0 0.0
2014-Nov-03 00:32N 51°49' E 003°22'0 0.0
2014-Nov-02 23:32N 51°49' E 003°22'0 0.0
2014-Nov-02 22:32N 51°49' E 003°23'0 0.0
2014-Nov-02 21:32N 51°49' E 003°23'0 0.0
2014-Nov-02 20:29N 51°49' E 003°22'0 0.0
2014-Nov-02 19:05N 51°49' E 003°23'0 0.0
2014-Nov-02 18:20N 51°49' E 003°22'0 0.0
2014-Nov-02 15:32N 51°49' E 003°22'0 0.0
2014-Nov-02 14:32N 51°49' E 003°22'0 0.1
2014-Nov-02 13:32N 51°49' E 003°22'1412.7
2014-Nov-02 12:27N 52°03' E 003°20'8414.2
2014-Nov-02 06:33N 53°16' E 004°28'1515.4
2014-Nov-02 05:33N 53°31' E 004°36'1615.1
2014-Nov-02 04:29N 53°46' E 004°45'1414.9
2014-Nov-02 03:34N 53°59' E 004°53'1514.7
2014-Nov-02 02:33N 54°13' E 005°03'1514.8
2014-Nov-02 01:32N 54°26' E 005°14'9315.5
2014-Nov-01 19:32N 55°45' E 006°40'1615.6
2014-Nov-01 18:31N 55°58' E 006°55'12615.0
2014-Nov-01 10:09N 57°38' E 009°15'915.2
2014-Nov-01 09:33N 57°40' E 009°32'1515.5
2014-Nov-01 08:34N 57°44' E 009°60'1615.5
2014-Nov-01 07:33N 57°47' E 010°28'1514.6
2014-Nov-01 06:33N 57°45' E 010°55'1716.8
2014-Nov-01 05:34N 57°33' E 011°18'1716.6
2014-Nov-01 04:34N 57°19' E 011°34'1717.2
2014-Nov-01 03:33N 57°03' E 011°44'1716.8
2014-Nov-01 02:34N 56°47' E 011°54'1616.1
2014-Nov-01 01:32N 56°32' E 011°40'5317.2
2014-Oct-31 22:26N 55°47' E 010°49'1517.4
2014-Oct-31 21:34N 55°32' E 010°52'1817.1
2014-Oct-31 20:32N 55°16' E 011°05'1616.6
2014-Oct-31 19:33N 54°60' E 011°02'1716.8
2014-Oct-31 18:32N 54°44' E 010°53'1716.9
2014-Oct-31 17:32N 54°34' E 011°17'1616.7
2014-Oct-31 16:33N 54°27' E 011°43'1716.1
2014-Oct-31 15:31N 54°27' E 012°11'7715.6
2014-Oct-31 10:34N 55°06' E 014°08'1615.9
2014-Oct-31 09:33N 55°18' E 014°25'1615.8
2014-Oct-31 08:33N 55°29' E 014°46'1716.3
2014-Oct-31 07:33N 55°37' E 015°12'  

Dump ship's entire track history